Live from Altenrhein
LIVE
LSZR 271950Z AUTO VRB03KT 9999 OVC080 19/10 Q1021 RERA

People´s C-Office:

T: +41 (0)71 858 51 65

E: c-office@peoples.ch

Webcam Airport St. Gallen-Altenrhein

Live images LSZR.

 

Live from Altenrhein
LIVE
LSZR 271950Z AUTO VRB03KT 9999 OVC080 19/10 Q1021 RERA
Time-laps today
2016-06-27 00:14:57
LSZR 262150Z AUTO 19004KT 150V240 9999 BKN050 BKN070 17/10 Q1021
Time-laps yesterday
2016-06-26 00:14:59
LSZR 252150Z AUTO 28011KT 3900 -SHRA BR BKN012 17/16 Q1019
Time-laps 3 days ago
2016-06-24 00:15:00
LSZR 232150Z AUTO VRB01KT CAVOK 21/17 Q1018